Time;durP1;ratioP1;P1;durP2;ratioP2;P2;SDS_P1;SDS_P2;PMS_P1;PMS_P2;Temp;Humidity;BMP_temperature;BMP_pressure;BME280_temperature;BME280_humidity;BME280_pressure;Samples;Min_cycle;Max_cycle;Signal;HPM_P1;HPM_P2
2022/03/26 00:02:24;;;;;;;61.37;28.67;;;;;;;;;;5103417;28;20144;-62
2022/03/26 00:04:50;;;;;;;68.30;30.80;;;;;;;;;;5102352;28;20043;-63
2022/03/26 00:07:16;;;;;;;74.97;33.47;;;;;;;;;;5100078;28;20048;-63
2022/03/26 00:09:42;;;;;;;70.87;32.73;;;;;;;;;;5094625;28;20139;-63
2022/03/26 00:12:09;;;;;;;70.87;33.47;;;;;;;;;;5095871;28;20370;-62
2022/03/26 00:14:35;;;;;;;74.07;31.20;;;;;;;;;;5064183;28;20119;-62
2022/03/26 00:17:01;;;;;;;72.13;32.13;;;;;;;;;;5098842;28;20127;-62
2022/03/26 00:19:27;;;;;;;74.37;33.90;;;;;;;;;;5096463;28;20053;-63
2022/03/26 00:21:53;;;;;;;66.73;30.40;;;;;;;;;;5096909;28;20055;-63
2022/03/26 00:24:19;;;;;;;70.63;30.00;;;;;;;;;;5096409;28;20078;-62
2022/03/26 00:26:46;;;;;;;59.60;25.10;;;;;;;;;;5097811;28;20071;-62
2022/03/26 00:29:12;;;;;;;69.37;28.37;;;;;;;;;;5077899;28;20638;-63
2022/03/26 00:31:38;;;;;;;58.67;27.13;;;;;;;;;;5097314;28;20278;-62
2022/03/26 00:34:08;;;;;;;63.23;25.73;;;;;;;;;;5098738;28;20047;-62
2022/03/26 00:36:35;;;;;;;67.47;27.50;;;;;;;;;;5093570;28;20173;-62
2022/03/26 00:39:01;;;;;;;58.90;24.53;;;;;;;;;;5097055;28;20093;-62
2022/03/26 00:41:28;;;;;;;65.63;26.10;;;;;;;;;;5080548;28;20032;-63
2022/03/26 00:43:55;;;;;;;63.53;25.47;;;;;;;;;;5089028;28;20048;-62
2022/03/26 00:46:21;;;;;;;64.77;27.93;;;;;;;;;;5100273;28;20783;-62
2022/03/26 00:48:48;;;;;;;72.03;28.27;;;;;;;;;;5096906;28;20337;-62
2022/03/26 00:51:15;;;;;;;69.30;28.97;;;;;;;;;;5097200;28;20285;-63
2022/03/26 00:53:42;;;;;;;65.93;29.20;;;;;;;;;;5097587;28;20087;-63
2022/03/26 00:56:08;;;;;;;82.00;30.47;;;;;;;;;;5097650;28;20486;-63
2022/03/26 00:58:34;;;;;;;81.40;33.50;;;;;;;;;;5098882;28;20834;-63
2022/03/26 01:01:00;;;;;;;82.87;32.63;;;;;;;;;;5097443;28;20282;-63
2022/03/26 01:03:26;;;;;;;83.77;34.77;;;;;;;;;;5099042;28;20301;-63
2022/03/26 01:05:52;;;;;;;87.37;36.30;;;;;;;;;;5099360;28;20036;-62
2022/03/26 01:08:18;;;;;;;93.90;35.50;;;;;;;;;;5097796;28;20036;-63
2022/03/26 01:10:44;;;;;;;87.40;34.53;;;;;;;;;;5099153;28;20043;-62
2022/03/26 01:13:14;;;;;;;84.00;33.27;;;;;;;;;;5098909;28;20782;-63
2022/03/26 01:15:40;;;;;;;95.23;35.77;;;;;;;;;;5097430;28;20047;-63
2022/03/26 01:18:09;;;;;;;95.93;38.13;;;;;;;;;;5098675;28;20281;-62
2022/03/26 01:20:36;;;;;;;96.63;39.33;;;;;;;;;;5099779;28;20270;-62
2022/03/26 01:23:02;;;;;;;82.63;34.43;;;;;;;;;;5096577;28;20422;-63
2022/03/26 01:25:28;;;;;;;90.00;34.40;;;;;;;;;;5098320;28;20036;-63
2022/03/26 01:27:54;;;;;;;102.07;38.33;;;;;;;;;;5080739;28;20330;-63
2022/03/26 01:30:20;;;;;;;101.97;39.77;;;;;;;;;;5088222;28;20152;-63
2022/03/26 01:32:47;;;;;;;93.67;35.80;;;;;;;;;;5088040;28;20652;-63
2022/03/26 01:35:13;;;;;;;93.27;36.60;;;;;;;;;;5077739;28;20807;-62
2022/03/26 01:37:39;;;;;;;96.70;35.03;;;;;;;;;;5096789;28;20293;-62
2022/03/26 01:40:06;;;;;;;90.23;34.30;;;;;;;;;;5098346;28;20489;-62
2022/03/26 01:42:32;;;;;;;108.77;35.20;;;;;;;;;;5098803;28;20429;-62
2022/03/26 01:44:58;;;;;;;93.43;35.70;;;;;;;;;;5096856;28;20622;-62
2022/03/26 01:47:24;;;;;;;96.23;35.10;;;;;;;;;;5098292;28;20647;-62
2022/03/26 01:49:51;;;;;;;100.20;37.17;;;;;;;;;;5098290;28;20286;-63
2022/03/26 01:52:17;;;;;;;93.10;37.33;;;;;;;;;;5099577;28;20127;-63
2022/03/26 01:54:44;;;;;;;97.90;39.30;;;;;;;;;;5097138;28;20313;-63
2022/03/26 01:57:11;;;;;;;97.53;39.93;;;;;;;;;;5097787;28;20330;-62
2022/03/26 01:59:37;;;;;;;128.53;40.67;;;;;;;;;;5098793;28;20378;-63
2022/03/26 02:02:03;;;;;;;127.70;42.70;;;;;;;;;;5097407;28;20326;-63
2022/03/26 02:04:30;;;;;;;101.57;38.23;;;;;;;;;;5097686;28;20335;-63
2022/03/26 02:06:56;;;;;;;111.97;40.10;;;;;;;;;;5098925;28;20347;-63
2022/03/26 02:09:22;;;;;;;126.13;43.67;;;;;;;;;;5098679;28;20277;-63
2022/03/26 02:11:48;;;;;;;122.13;41.67;;;;;;;;;;5097905;28;20290;-63
2022/03/26 02:14:15;;;;;;;121.87;42.50;;;;;;;;;;5096509;28;20359;-62
2022/03/26 02:16:41;;;;;;;132.03;42.80;;;;;;;;;;5096132;28;20289;-62
2022/03/26 02:19:09;;;;;;;134.53;45.37;;;;;;;;;;5097741;28;20355;-63
2022/03/26 02:21:37;;;;;;;120.23;43.13;;;;;;;;;;5098447;28;20788;-63
2022/03/26 02:24:05;;;;;;;142.57;47.07;;;;;;;;;;5096748;28;20304;-63
2022/03/26 02:26:31;;;;;;;122.87;45.50;;;;;;;;;;5095978;28;20526;-63
2022/03/26 02:28:58;;;;;;;150.30;47.87;;;;;;;;;;5094437;28;20282;-63
2022/03/26 02:31:27;;;;;;;151.43;50.37;;;;;;;;;;5096312;28;20309;-62
2022/03/26 02:33:54;;;;;;;146.80;48.73;;;;;;;;;;5079466;28;20768;-62
2022/03/26 02:36:20;;;;;;;161.17;52.03;;;;;;;;;;5091419;28;20308;-62
2022/03/26 02:38:46;;;;;;;152.70;52.43;;;;;;;;;;5091111;28;20344;-63
2022/03/26 02:41:12;;;;;;;133.13;50.40;;;;;;;;;;5102194;28;20302;-63
2022/03/26 02:43:38;;;;;;;139.53;50.07;;;;;;;;;;5100330;28;20039;-63
2022/03/26 02:46:04;;;;;;;138.03;52.73;;;;;;;;;;5084366;28;20044;-62
2022/03/26 02:48:30;;;;;;;152.50;50.97;;;;;;;;;;5091361;28;20282;-63
2022/03/26 02:50:56;;;;;;;143.00;50.50;;;;;;;;;;5090670;28;20177;-62
2022/03/26 02:53:22;;;;;;;147.97;54.50;;;;;;;;;;5100500;28;20282;-62
2022/03/26 02:55:48;;;;;;;138.77;50.33;;;;;;;;;;5100949;28;20321;-62
2022/03/26 02:58:14;;;;;;;152.80;54.50;;;;;;;;;;5101893;28;20399;-62
2022/03/26 03:00:40;;;;;;;145.17;52.37;;;;;;;;;;5100081;28;20289;-63
2022/03/26 03:03:08;;;;;;;134.77;48.17;;;;;;;;;;5083101;28;20282;-63
2022/03/26 03:05:34;;;;;;;138.27;49.67;;;;;;;;;;5091229;28;20981;-63
2022/03/26 03:08:00;;;;;;;140.63;50.50;;;;;;;;;;5096531;28;20293;-63
2022/03/26 03:10:27;;;;;;;133.17;48.80;;;;;;;;;;5100883;28;20285;-63
2022/03/26 03:12:53;;;;;;;131.83;47.30;;;;;;;;;;5100895;28;20301;-62
2022/03/26 03:15:20;;;;;;;127.03;45.67;;;;;;;;;;5099940;28;20573;-62
2022/03/26 03:17:46;;;;;;;131.30;47.60;;;;;;;;;;5101316;28;20331;-62
2022/03/26 03:20:14;;;;;;;120.97;44.73;;;;;;;;;;5101339;28;20333;-62
2022/03/26 03:22:41;;;;;;;141.03;48.10;;;;;;;;;;5081745;28;20289;-62
2022/03/26 03:25:07;;;;;;;128.73;43.43;;;;;;;;;;5099948;28;20282;-62
2022/03/26 03:27:34;;;;;;;120.47;45.67;;;;;;;;;;5100228;28;20282;-63
2022/03/26 03:30:00;;;;;;;129.63;46.37;;;;;;;;;;5101590;28;20286;-63
2022/03/26 03:32:26;;;;;;;144.07;47.73;;;;;;;;;;5098413;28;20320;-63
2022/03/26 03:34:52;;;;;;;148.20;49.20;;;;;;;;;;5101048;28;20293;-62
2022/03/26 03:37:18;;;;;;;140.70;46.20;;;;;;;;;;5099474;28;20839;-63
2022/03/26 03:39:45;;;;;;;130.53;47.23;;;;;;;;;;5101757;28;20830;-63
2022/03/26 03:42:11;;;;;;;121.23;43.23;;;;;;;;;;5100081;28;20278;-63
2022/03/26 03:44:37;;;;;;;127.10;43.57;;;;;;;;;;5082371;28;20297;-63
2022/03/26 03:47:04;;;;;;;128.50;43.70;;;;;;;;;;5090232;28;20331;-63
2022/03/26 03:49:33;;;;;;;137.10;46.93;;;;;;;;;;5092952;28;20278;-63
2022/03/26 03:51:59;;;;;;;140.67;48.20;;;;;;;;;;5101272;28;20345;-63
2022/03/26 03:54:25;;;;;;;135.73;45.43;;;;;;;;;;5099853;28;20278;-62
2022/03/26 03:56:52;;;;;;;134.07;45.83;;;;;;;;;;5107881;28;20280;-62
2022/03/26 03:59:18;;;;;;;131.40;43.60;;;;;;;;;;5110435;28;20601;-62
2022/03/26 04:01:44;;;;;;;134.53;45.57;;;;;;;;;;5095042;28;20321;-63
2022/03/26 04:04:10;;;;;;;138.27;45.97;;;;;;;;;;5090448;28;20310;-63
2022/03/26 04:06:37;;;;;;;130.93;44.03;;;;;;;;;;5089838;28;20051;-62
2022/03/26 04:09:03;;;;;;;133.33;46.30;;;;;;;;;;5106465;28;20293;-62
2022/03/26 04:11:29;;;;;;;139.00;45.33;;;;;;;;;;5110295;28;20313;-62
2022/03/26 04:13:56;;;;;;;144.60;45.17;;;;;;;;;;5111298;28;20285;-63
2022/03/26 04:16:22;;;;;;;134.43;44.10;;;;;;;;;;5110699;28;20273;-62
2022/03/26 04:18:48;;;;;;;121.03;43.37;;;;;;;;;;5111012;28;20864;-62
2022/03/26 04:21:15;;;;;;;141.27;45.03;;;;;;;;;;5110563;28;20339;-63
2022/03/26 04:23:41;;;;;;;150.20;47.63;;;;;;;;;;5111021;28;20301;-63
2022/03/26 04:26:08;;;;;;;148.90;47.50;;;;;;;;;;5111272;28;20313;-62
2022/03/26 04:28:34;;;;;;;133.57;43.63;;;;;;;;;;5110917;28;20302;-63
2022/03/26 04:31:00;;;;;;;136.10;43.57;;;;;;;;;;5110324;28;20293;-63
2022/03/26 04:33:26;;;;;;;154.27;45.97;;;;;;;;;;5110341;28;20317;-63
2022/03/26 04:35:53;;;;;;;150.07;46.27;;;;;;;;;;5104236;28;20328;-63
2022/03/26 04:38:19;;;;;;;149.63;48.13;;;;;;;;;;5072320;28;20318;-62
2022/03/26 04:40:45;;;;;;;139.00;41.93;;;;;;;;;;5089982;28;20332;-63
2022/03/26 04:43:11;;;;;;;134.03;41.33;;;;;;;;;;5090196;28;20686;-63
2022/03/26 04:45:38;;;;;;;145.43;46.17;;;;;;;;;;5090089;28;20432;-63
2022/03/26 04:48:04;;;;;;;161.00;47.30;;;;;;;;;;5090191;28;20332;-63
2022/03/26 04:50:30;;;;;;;163.07;51.87;;;;;;;;;;5090191;28;20290;-63
2022/03/26 04:52:56;;;;;;;165.53;50.13;;;;;;;;;;5089981;28;20286;-63
2022/03/26 04:55:22;;;;;;;158.93;51.23;;;;;;;;;;5071305;28;20811;-62
2022/03/26 04:57:49;;;;;;;171.60;50.93;;;;;;;;;;5070298;28;21196;-63
2022/03/26 05:00:16;;;;;;;144.17;47.20;;;;;;;;;;5089122;28;20312;-63
2022/03/26 05:02:43;;;;;;;146.13;49.43;;;;;;;;;;5073421;28;20294;-63
2022/03/26 05:05:10;;;;;;;158.20;50.87;;;;;;;;;;5089353;28;20278;-63
2022/03/26 05:07:46;;;;;;;167.27;53.30;;;;;;;;;;5089398;28;20270;-63
2022/03/26 05:10:14;;;;;;;141.23;49.90;;;;;;;;;;5089201;28;20845;-62
2022/03/26 05:12:40;;;;;;;188.60;52.07;;;;;;;;;;5088929;28;20312;-62
2022/03/26 05:15:06;;;;;;;189.60;54.67;;;;;;;;;;5089534;28;20282;-63
2022/03/26 05:17:32;;;;;;;187.80;52.93;;;;;;;;;;5070486;28;20900;-63
2022/03/26 05:19:58;;;;;;;179.33;52.60;;;;;;;;;;5088932;28;20360;-63
2022/03/26 05:22:24;;;;;;;171.77;54.10;;;;;;;;;;5089593;28;20040;-63
2022/03/26 05:24:50;;;;;;;167.70;47.17;;;;;;;;;;5088936;28;20282;-63
2022/03/26 05:27:16;;;;;;;164.23;50.07;;;;;;;;;;5089473;28;20285;-63
2022/03/26 05:29:42;;;;;;;165.13;50.90;;;;;;;;;;5089060;28;20636;-63
2022/03/26 05:32:08;;;;;;;154.53;49.53;;;;;;;;;;5088336;28;20082;-63
2022/03/26 05:34:34;;;;;;;174.47;51.87;;;;;;;;;;5088708;28;20059;-63
2022/03/26 05:37:00;;;;;;;176.63;48.83;;;;;;;;;;5088168;28;20848;-63
2022/03/26 05:39:26;;;;;;;169.17;47.63;;;;;;;;;;5088441;28;20310;-63
2022/03/26 05:41:53;;;;;;;151.47;45.73;;;;;;;;;;5089027;28;20279;-62
2022/03/26 05:44:18;;;;;;;160.53;44.97;;;;;;;;;;5088328;28;21010;-62
2022/03/26 05:46:45;;;;;;;138.20;41.17;;;;;;;;;;5088418;28;20278;-62
2022/03/26 05:49:11;;;;;;;152.30;44.10;;;;;;;;;;5070239;28;20044;-63
2022/03/26 05:51:37;;;;;;;149.17;45.50;;;;;;;;;;5088101;28;21174;-63
2022/03/26 05:54:03;;;;;;;171.90;44.73;;;;;;;;;;5088362;28;20325;-63
2022/03/26 05:56:30;;;;;;;136.00;44.40;;;;;;;;;;5088090;28;20052;-63
2022/03/26 05:58:56;;;;;;;148.80;45.77;;;;;;;;;;5088178;28;20302;-63
2022/03/26 06:01:22;;;;;;;187.10;50.83;;;;;;;;;;5088517;28;20289;-63
2022/03/26 06:03:48;;;;;;;165.43;46.77;;;;;;;;;;5088057;28;20278;-63
2022/03/26 06:06:14;;;;;;;188.67;51.90;;;;;;;;;;5088174;28;20289;-63
2022/03/26 06:08:40;;;;;;;171.50;47.37;;;;;;;;;;5087820;28;20289;-63
2022/03/26 06:11:06;;;;;;;166.20;44.97;;;;;;;;;;5088900;28;20294;-63
2022/03/26 06:13:33;;;;;;;178.20;49.03;;;;;;;;;;5088034;28;20297;-63
2022/03/26 06:15:59;;;;;;;183.53;55.30;;;;;;;;;;5087977;28;20282;-63
2022/03/26 06:18:25;;;;;;;171.77;54.93;;;;;;;;;;5088642;28;20298;-63
2022/03/26 06:20:51;;;;;;;195.10;53.07;;;;;;;;;;5088136;28;20286;-64
2022/03/26 06:23:18;;;;;;;192.40;57.17;;;;;;;;;;5087587;28;20290;-63
2022/03/26 06:25:44;;;;;;;196.83;58.53;;;;;;;;;;5089019;28;20358;-63
2022/03/26 06:28:10;;;;;;;206.10;56.97;;;;;;;;;;5088890;28;20290;-63
2022/03/26 06:30:36;;;;;;;200.07;59.00;;;;;;;;;;5096957;28;20285;-63
2022/03/26 06:33:02;;;;;;;207.53;57.40;;;;;;;;;;5108606;28;20285;-64
2022/03/26 06:35:28;;;;;;;219.23;64.37;;;;;;;;;;5095311;28;20321;-63
2022/03/26 06:37:54;;;;;;;225.60;66.40;;;;;;;;;;5088267;28;20527;-63
2022/03/26 06:40:20;;;;;;;228.33;67.17;;;;;;;;;;5088281;28;20313;-63
2022/03/26 06:42:46;;;;;;;231.17;66.23;;;;;;;;;;5088291;28;20278;-64
2022/03/26 06:45:12;;;;;;;244.83;77.00;;;;;;;;;;5088396;28;20991;-63
2022/03/26 06:47:39;;;;;;;234.60;69.07;;;;;;;;;;5088235;28;20366;-63
2022/03/26 06:50:05;;;;;;;230.37;68.37;;;;;;;;;;5088141;28;20510;-64
2022/03/26 06:52:31;;;;;;;241.50;74.73;;;;;;;;;;5087538;28;20365;-63
2022/03/26 06:54:57;;;;;;;239.30;76.37;;;;;;;;;;5087994;28;20305;-63
2022/03/26 06:57:23;;;;;;;258.70;78.17;;;;;;;;;;5088005;28;20774;-63
2022/03/26 06:59:50;;;;;;;246.90;77.93;;;;;;;;;;5087347;28;20372;-64
2022/03/26 07:02:16;;;;;;;223.30;74.17;;;;;;;;;;5088160;28;20274;-63
2022/03/26 07:04:42;;;;;;;221.80;71.50;;;;;;;;;;5088047;28;20097;-64
2022/03/26 07:07:08;;;;;;;228.27;71.77;;;;;;;;;;5087887;28;20078;-64
2022/03/26 07:09:34;;;;;;;215.60;69.87;;;;;;;;;;5088370;28;20486;-63
2022/03/26 07:12:00;;;;;;;208.70;66.77;;;;;;;;;;5087617;28;20035;-64
2022/03/26 07:14:26;;;;;;;203.70;70.37;;;;;;;;;;5086822;28;20170;-64
2022/03/26 07:16:52;;;;;;;232.93;76.73;;;;;;;;;;5086492;28;20127;-62
2022/03/26 07:19:18;;;;;;;232.23;75.17;;;;;;;;;;5087135;28;20044;-62
2022/03/26 07:21:44;;;;;;;230.40;78.40;;;;;;;;;;5091015;28;20055;-62
2022/03/26 07:24:10;;;;;;;245.23;81.07;;;;;;;;;;5091460;28;20048;-62
2022/03/26 07:26:36;;;;;;;231.70;78.67;;;;;;;;;;5091152;28;20082;-62
2022/03/26 07:29:02;;;;;;;244.63;84.80;;;;;;;;;;5091038;28;20132;-62
2022/03/26 07:31:28;;;;;;;249.17;83.00;;;;;;;;;;5091262;28;20575;-62
2022/03/26 07:33:55;;;;;;;209.77;79.73;;;;;;;;;;5090888;28;20093;-63
2022/03/26 07:36:20;;;;;;;230.27;80.37;;;;;;;;;;5090824;28;20121;-63
2022/03/26 07:38:47;;;;;;;214.93;77.37;;;;;;;;;;5090588;28;20048;-63
2022/03/26 07:41:13;;;;;;;199.50;77.13;;;;;;;;;;5090874;28;20040;-62
2022/03/26 07:43:39;;;;;;;213.83;80.40;;;;;;;;;;5090670;28;20044;-63
2022/03/26 07:46:05;;;;;;;209.67;77.87;;;;;;;;;;5072718;28;20413;-63
2022/03/26 07:48:31;;;;;;;195.67;74.67;;;;;;;;;;5072812;28;20044;-63
2022/03/26 07:50:57;;;;;;;184.17;73.77;;;;;;;;;;5090638;28;20087;-63
2022/03/26 07:53:25;;;;;;;173.63;70.27;;;;;;;;;;5091442;28;20050;-63
2022/03/26 07:55:51;;;;;;;181.73;72.27;;;;;;;;;;5101723;28;20046;-62
2022/03/26 07:58:17;;;;;;;185.47;71.83;;;;;;;;;;5111229;28;20053;-63
2022/03/26 08:00:43;;;;;;;178.60;68.50;;;;;;;;;;5111209;28;20114;-63
2022/03/26 08:03:10;;;;;;;158.23;68.33;;;;;;;;;;5111398;28;20394;-63
2022/03/26 08:05:37;;;;;;;142.37;61.93;;;;;;;;;;5110954;28;20050;-63
2022/03/26 08:08:03;;;;;;;157.93;66.10;;;;;;;;;;5108635;28;20040;-63
2022/03/26 08:10:29;;;;;;;136.20;60.63;;;;;;;;;;5110949;28;20484;-63
2022/03/26 08:12:55;;;;;;;125.67;57.27;;;;;;;;;;5110904;28;20039;-63
2022/03/26 08:15:21;;;;;;;129.53;57.17;;;;;;;;;;5110649;28;20096;-63
2022/03/26 08:17:47;;;;;;;123.00;56.77;;;;;;;;;;5110035;28;20418;-63
2022/03/26 08:20:14;;;;;;;102.43;48.27;;;;;;;;;;5110762;28;20043;-63
2022/03/26 08:22:41;;;;;;;106.03;49.73;;;;;;;;;;5083488;28;20055;-63
2022/03/26 08:25:11;;;;;;;99.97;47.87;;;;;;;;;;5076773;28;20058;-62
2022/03/26 08:27:40;;;;;;;104.27;51.33;;;;;;;;;;5105254;28;20043;-63
2022/03/26 08:30:07;;;;;;;91.90;44.83;;;;;;;;;;5095301;28;20043;-63
2022/03/26 08:32:34;;;;;;;89.17;42.97;;;;;;;;;;5089643;28;20422;-63
2022/03/26 08:35:00;;;;;;;79.73;40.60;;;;;;;;;;5090199;28;20113;-64
2022/03/26 08:37:26;;;;;;;77.07;38.37;;;;;;;;;;5090641;28;20900;-64
2022/03/26 08:39:52;;;;;;;75.03;36.37;;;;;;;;;;5089738;28;20047;-64
2022/03/26 08:42:18;;;;;;;67.30;34.27;;;;;;;;;;5090609;28;20184;-63
2022/03/26 08:44:44;;;;;;;64.83;33.83;;;;;;;;;;5076635;28;20402;-63
2022/03/26 08:47:11;;;;;;;59.87;33.33;;;;;;;;;;5089212;28;20449;-63
2022/03/26 08:49:37;;;;;;;57.67;27.83;;;;;;;;;;5089914;28;20044;-64
2022/03/26 08:52:03;;;;;;;58.20;30.20;;;;;;;;;;5106364;28;20134;-64
2022/03/26 08:54:29;;;;;;;62.37;29.50;;;;;;;;;;5095887;28;20043;-64
2022/03/26 08:56:55;;;;;;;51.07;28.30;;;;;;;;;;5097406;28;20044;-64
2022/03/26 08:59:23;;;;;;;54.90;29.93;;;;;;;;;;5101845;28;20079;-64
2022/03/26 09:01:49;;;;;;;59.97;31.17;;;;;;;;;;5109882;28;20039;-64
2022/03/26 09:04:16;;;;;;;59.63;30.67;;;;;;;;;;5108228;28;20082;-65
2022/03/26 09:06:42;;;;;;;62.53;30.63;;;;;;;;;;5090152;28;20044;-64
2022/03/26 09:09:08;;;;;;;58.17;29.97;;;;;;;;;;5089348;28;20051;-64
2022/03/26 09:11:35;;;;;;;57.57;29.87;;;;;;;;;;5090964;28;20042;-65
2022/03/26 09:14:01;;;;;;;54.93;27.23;;;;;;;;;;5090471;28;20048;-64
2022/03/26 09:16:27;;;;;;;51.13;27.23;;;;;;;;;;5090130;28;20036;-65
2022/03/26 09:18:53;;;;;;;49.10;26.37;;;;;;;;;;5100382;28;20054;-65
2022/03/26 09:21:19;;;;;;;51.60;27.80;;;;;;;;;;5089966;28;20043;-65
2022/03/26 09:23:45;;;;;;;59.57;30.17;;;;;;;;;;5089470;28;20105;-65
2022/03/26 09:26:11;;;;;;;48.90;27.87;;;;;;;;;;5089561;28;20090;-65
2022/03/26 09:28:37;;;;;;;51.37;28.87;;;;;;;;;;5090084;28;20072;-65
2022/03/26 09:31:03;;;;;;;52.03;29.67;;;;;;;;;;5089702;28;20048;-65
2022/03/26 09:33:29;;;;;;;55.63;27.83;;;;;;;;;;5070872;28;20040;-64
2022/03/26 09:35:55;;;;;;;56.07;28.43;;;;;;;;;;5089198;28;20059;-65
2022/03/26 09:38:21;;;;;;;48.13;26.57;;;;;;;;;;5089265;28;20059;-65
2022/03/26 09:40:47;;;;;;;46.77;25.23;;;;;;;;;;5088904;28;20402;-65
2022/03/26 09:43:14;;;;;;;44.83;23.60;;;;;;;;;;5090814;28;20435;-65
2022/03/26 09:45:40;;;;;;;42.07;24.37;;;;;;;;;;5109529;28;20608;-65
2022/03/26 09:48:06;;;;;;;45.97;23.83;;;;;;;;;;5109309;28;20112;-65
2022/03/26 09:50:32;;;;;;;41.57;23.90;;;;;;;;;;5105255;28;20406;-65
2022/03/26 09:52:58;;;;;;;47.70;22.67;;;;;;;;;;5076761;28;20413;-65
2022/03/26 09:55:24;;;;;;;39.67;22.57;;;;;;;;;;5089014;28;20047;-65
2022/03/26 09:57:52;;;;;;;41.50;22.57;;;;;;;;;;5108981;28;20043;-65
2022/03/26 10:00:18;;;;;;;43.93;22.03;;;;;;;;;;5093645;28;20525;-66
2022/03/26 10:02:44;;;;;;;36.57;18.87;;;;;;;;;;5105613;28;20126;-65
2022/03/26 10:05:12;;;;;;;32.10;18.20;;;;;;;;;;5100475;28;20574;-66
2022/03/26 10:07:38;;;;;;;30.07;17.50;;;;;;;;;;5088479;28;20047;-65
2022/03/26 10:10:04;;;;;;;29.60;16.57;;;;;;;;;;5090518;28;20096;-66
2022/03/26 10:12:30;;;;;;;26.90;17.43;;;;;;;;;;5080311;28;20176;-65
2022/03/26 10:14:57;;;;;;;32.13;17.83;;;;;;;;;;5089317;28;20036;-65
2022/03/26 10:17:24;;;;;;;29.77;17.27;;;;;;;;;;5092128;28;20455;-66
2022/03/26 10:19:51;;;;;;;30.40;17.60;;;;;;;;;;5103095;28;20164;-65
2022/03/26 10:22:24;;;;;;;27.87;16.73;;;;;;;;;;5099340;28;20522;-66
2022/03/26 10:24:50;;;;;;;26.00;15.35;;;;;;;;;;5088211;28;20105;-65
2022/03/26 10:27:16;;;;;;;26.27;16.37;;;;;;;;;;5101861;28;20494;-66
2022/03/26 10:29:56;;;;;;;27.63;15.40;;;;;;;;;;5107497;28;20047;-65
2022/03/26 10:35:16;;;;;;;24.83;15.60;;;;;;;;;;5096942;28;20052;-66
2022/03/26 10:37:44;;;;;;;24.67;15.47;;;;;;;;;;5104329;28;20051;-66
2022/03/26 10:40:20;;;;;;;25.53;14.00;;;;;;;;;;5096775;28;20454;-66
2022/03/26 10:42:52;;;;;;;16.50;12.20;;;;;;;;;;5095868;28;20081;-66
2022/03/26 10:45:18;;;;;;;18.00;11.98;;;;;;;;;;5103232;28;20490;-66
2022/03/26 10:47:45;;;;;;;20.83;13.37;;;;;;;;;;5087669;28;20083;-66
2022/03/26 10:50:14;;;;;;;18.10;12.70;;;;;;;;;;5101121;28;20039;-66
2022/03/26 10:52:41;;;;;;;15.73;10.70;;;;;;;;;;5094981;28;20398;-66
2022/03/26 10:55:17;;;;;;;14.57;11.03;;;;;;;;;;5071338;28;20047;-66
2022/03/26 10:57:47;;;;;;;17.07;12.20;;;;;;;;;;5091970;28;20079;-66
2022/03/26 11:00:14;;;;;;;18.57;12.93;;;;;;;;;;5091946;28;20052;-65
2022/03/26 11:02:41;;;;;;;19.20;13.60;;;;;;;;;;5098570;28;20036;-66
2022/03/26 11:05:07;;;;;;;24.23;14.57;;;;;;;;;;5112506;28;20130;-66
2022/03/26 11:07:35;;;;;;;16.60;12.47;;;;;;;;;;5082669;28;20410;-66
2022/03/26 11:10:04;;;;;;;19.20;13.97;;;;;;;;;;5090620;28;20106;-66
2022/03/26 11:12:30;;;;;;;21.87;13.43;;;;;;;;;;5093254;28;20040;-66
2022/03/26 11:14:58;;;;;;;19.30;12.87;;;;;;;;;;5100956;28;20130;-66
2022/03/26 11:17:27;;;;;;;18.27;12.97;;;;;;;;;;5101375;28;20040;-66
2022/03/26 11:20:11;;;;;;;24.97;14.10;;;;;;;;;;5081887;28;20915;-66
2022/03/26 11:22:52;;;;;;;16.97;13.17;;;;;;;;;;5099302;28;20090;-65
2022/03/26 11:25:37;;;;;;;18.40;13.67;;;;;;;;;;5100714;28;20546;-65
2022/03/26 11:28:22;;;;;;;21.60;14.27;;;;;;;;;;5098792;28;20043;-65
2022/03/26 11:30:51;;;;;;;17.17;12.40;;;;;;;;;;5099005;28;20040;-65
2022/03/26 11:33:18;;;;;;;20.42;13.50;;;;;;;;;;5102694;28;20043;-65
2022/03/26 11:35:52;;;;;;;18.38;12.43;;;;;;;;;;5111369;28;20058;-65
2022/03/26 11:38:18;;;;;;;14.48;11.07;;;;;;;;;;5090625;28;20049;-65
2022/03/26 11:40:50;;;;;;;15.55;11.27;;;;;;;;;;5110698;28;20044;-65
2022/03/26 11:43:39;;;;;;;12.05;10.13;;;;;;;;;;5101705;28;20050;-65
2022/03/26 11:51:37;;;;;;;15.07;10.93;;;;;;;;;;5090731;28;20135;-66
2022/03/26 11:54:08;;;;;;;19.95;10.70;;;;;;;;;;5095502;28;20485;-65
2022/03/26 11:56:35;;;;;;;15.73;10.88;;;;;;;;;;5091548;28;20123;-66
2022/03/26 11:59:04;;;;;;;16.52;12.10;;;;;;;;;;5090866;28;20047;-66
2022/03/26 12:01:40;;;;;;;13.45;10.02;;;;;;;;;;5090557;28;20136;-66
2022/03/26 12:04:16;;;;;;;11.75;8.82;;;;;;;;;;5101283;28;20155;-66
2022/03/26 12:06:52;;;;;;;12.40;9.95;;;;;;;;;;5101809;28;20105;-66
2022/03/26 12:09:29;;;;;;;14.18;11.13;;;;;;;;;;5100673;28;20146;-66
2022/03/26 12:12:10;;;;;;;14.48;10.23;;;;;;;;;;5092277;28;20051;-66
2022/03/26 12:14:56;;;;;;;14.88;9.55;;;;;;;;;;5111225;28;20040;-66
2022/03/26 12:17:41;;;;;;;13.02;8.63;;;;;;;;;;5093855;28;20043;-66
2022/03/26 12:20:26;;;;;;;13.02;9.10;;;;;;;;;;5093867;28;20043;-66
2022/03/26 12:23:07;;;;;;;10.35;8.00;;;;;;;;;;5090435;28;20907;-66
2022/03/26 12:25:34;;;;;;;12.02;7.82;;;;;;;;;;5105802;28;20120;-66
2022/03/26 12:28:00;;;;;;;10.05;7.75;;;;;;;;;;5092097;28;20056;-66
2022/03/26 12:30:27;;;;;;;11.43;8.85;;;;;;;;;;5108950;28;20132;-66
2022/03/26 12:32:53;;;;;;;10.25;7.82;;;;;;;;;;5095453;28;20056;-66
2022/03/26 12:35:19;;;;;;;11.07;8.27;;;;;;;;;;5090010;28;20506;-66
2022/03/26 12:37:48;;;;;;;10.20;7.22;;;;;;;;;;5090493;28;20087;-66
2022/03/26 12:40:16;;;;;;;7.95;6.75;;;;;;;;;;5090180;28;20056;-66
2022/03/26 12:42:42;;;;;;;9.48;7.05;;;;;;;;;;5089684;28;20055;-66
2022/03/26 12:45:15;;;;;;;9.27;7.00;;;;;;;;;;5089979;28;20040;-68
2022/03/26 12:47:46;;;;;;;8.93;7.18;;;;;;;;;;5105224;28;20564;-67
2022/03/26 12:50:13;;;;;;;12.27;8.13;;;;;;;;;;5110708;28;20039;-67
2022/03/26 12:52:39;;;;;;;10.23;7.50;;;;;;;;;;5108645;28;20035;-67
2022/03/26 12:55:06;;;;;;;8.88;6.97;;;;;;;;;;5110314;28;20048;-67
2022/03/26 13:00:23;;;;;;;8.27;5.88;;;;;;;;;;5109941;28;20417;-67
2022/03/26 13:03:02;;;;;;;10.15;6.70;;;;;;;;;;5097162;28;20067;-67
2022/03/26 13:05:30;;;;;;;8.35;6.00;;;;;;;;;;5110154;28;20521;-67
2022/03/26 13:07:56;;;;;;;7.55;6.50;;;;;;;;;;5096514;28;20127;-67
2022/03/26 13:10:38;;;;;;;8.27;6.03;;;;;;;;;;5103803;28;20131;-67
2022/03/26 13:13:05;;;;;;;9.27;5.57;;;;;;;;;;5089445;28;20083;-67
2022/03/26 13:15:31;;;;;;;7.63;5.28;;;;;;;;;;5089858;28;20047;-67
2022/03/26 13:18:01;;;;;;;7.72;5.13;;;;;;;;;;5097752;28;20127;-67
2022/03/26 13:20:38;;;;;;;8.00;5.18;;;;;;;;;;5089297;28;20196;-67
2022/03/26 13:23:05;;;;;;;8.40;5.20;;;;;;;;;;5089247;28;20525;-67
2022/03/26 13:25:35;;;;;;;5.85;4.75;;;;;;;;;;5088954;28;20098;-67
2022/03/26 13:28:16;;;;;;;9.85;5.70;;;;;;;;;;5089235;28;20093;-67
2022/03/26 13:30:43;;;;;;;6.72;5.28;;;;;;;;;;5089263;28;20517;-67
2022/03/26 13:33:12;;;;;;;8.00;5.10;;;;;;;;;;5099253;28;20088;-67
2022/03/26 13:35:39;;;;;;;7.85;5.20;;;;;;;;;;5109246;28;20055;-66
2022/03/26 13:38:11;;;;;;;8.90;5.55;;;;;;;;;;5109470;28;20054;-66
2022/03/26 13:40:37;;;;;;;;;;;;;;;;;;5109170;28;20559;-66
2022/03/26 13:43:04;;;;;;;7.18;5.47;;;;;;;;;;5108458;28;20011;-66
2022/03/26 13:45:30;;;;;;;7.68;5.85;;;;;;;;;;5087356;28;20518;-66
2022/03/26 13:47:56;;;;;;;6.43;4.93;;;;;;;;;;5086645;28;20040;-66
2022/03/26 13:50:23;;;;;;;5.47;4.63;;;;;;;;;;5088447;28;20055;-66
2022/03/26 13:52:51;;;;;;;6.72;3.78;;;;;;;;;;5069518;28;20309;-66
2022/03/26 13:55:29;;;;;;;5.60;3.78;;;;;;;;;;5087376;28;20090;-66
2022/03/26 13:57:56;;;;;;;6.43;3.65;;;;;;;;;;5088833;28;20821;-66
2022/03/26 14:00:23;;;;;;;7.00;3.17;;;;;;;;;;5108282;28;20087;-66
2022/03/26 14:02:50;;;;;;;5.07;3.22;;;;;;;;;;5108912;28;20048;-66
2022/03/26 14:05:26;;;;;;;7.70;3.55;;;;;;;;;;5108554;28;20681;-67
2022/03/26 14:07:56;;;;;;;5.63;3.22;;;;;;;;;;5108733;28;20047;-66
2022/03/26 14:10:32;;;;;;;3.95;2.78;;;;;;;;;;5108034;28;20098;-66
2022/03/26 14:12:59;;;;;;;3.67;2.75;;;;;;;;;;5104778;28;20097;-66
2022/03/26 14:15:26;;;;;;;7.70;3.25;;;;;;;;;;5087861;28;20051;-66
2022/03/26 14:17:52;;;;;;;5.85;3.13;;;;;;;;;;5087984;28;20052;-67
2022/03/26 14:20:18;;;;;;;5.88;3.38;;;;;;;;;;5087994;28;20044;-67
2022/03/26 14:22:45;;;;;;;4.28;2.88;;;;;;;;;;5087301;28;20055;-66
2022/03/26 14:25:11;;;;;;;8.40;3.50;;;;;;;;;;5088039;28;20044;-67
2022/03/26 14:27:37;;;;;;;6.28;3.75;;;;;;;;;;5089664;28;20048;-67
2022/03/26 14:30:04;;;;;;;7.88;3.85;;;;;;;;;;5108647;28;20039;-67